createdAt,value
2023-02-22T00:01:35.557Z,416.20
2023-02-22T00:04:05.654Z,309.37
2023-02-22T00:06:34.792Z,419.47
2023-02-22T00:09:03.639Z,422.93
2023-02-22T00:11:35.552Z,430.50
2023-02-22T00:14:04.440Z,447.10
2023-02-22T00:16:32.941Z,381.13
2023-02-22T00:19:01.411Z,334.20
2023-02-22T00:21:31.204Z,438.90
2023-02-22T00:23:59.487Z,279.10
2023-02-22T00:26:28.055Z,395.60
2023-02-22T00:28:57.654Z,481.23
2023-02-22T00:31:26.099Z,340.10
2023-02-22T00:33:55.143Z,289.47
2023-02-22T00:36:23.579Z,425.27
2023-02-22T00:38:52.112Z,333.10
2023-02-22T00:41:20.569Z,374.30
2023-02-22T00:43:49.575Z,408.47
2023-02-22T00:46:19.279Z,307.07
2023-02-22T00:48:47.869Z,359.83
2023-02-22T00:51:16.647Z,423.33
2023-02-22T00:53:45.811Z,325.57
2023-02-22T00:56:14.368Z,448.17
2023-02-22T00:58:42.946Z,414.43
2023-02-22T01:01:11.488Z,404.30
2023-02-22T01:03:41.595Z,311.27
2023-02-22T01:06:10.499Z,410.27
2023-02-22T01:08:38.916Z,415.30
2023-02-22T01:11:07.447Z,321.77
2023-02-22T01:13:35.812Z,337.10
2023-02-22T01:16:04.511Z,404.77
2023-02-22T01:18:32.940Z,339.57
2023-02-22T01:21:02.645Z,375.33
2023-02-22T01:23:31.165Z,325.67
2023-02-22T01:25:59.851Z,365.13
2023-02-22T01:28:29.236Z,403.30
2023-02-22T01:30:58.222Z,344.90
2023-02-22T01:33:27.171Z,529.17
2023-02-22T01:35:55.666Z,389.23
2023-02-22T01:38:25.575Z,354.60
2023-02-22T01:40:53.894Z,438.57
2023-02-22T01:43:24.226Z,376.13
2023-02-22T01:45:58.143Z,389.60
2023-02-22T01:48:37.045Z,550.10
2023-02-22T01:51:10.966Z,411.00
2023-02-22T01:53:47.322Z,473.83
2023-02-22T01:56:16.494Z,395.03
2023-02-22T01:58:47.565Z,417.80
2023-02-22T02:01:17.862Z,537.93
2023-02-22T02:03:49.125Z,441.30
2023-02-22T02:06:19.797Z,525.87
2023-02-22T02:08:58.783Z,381.47
2023-02-22T02:11:28.012Z,425.03
2023-02-22T02:13:58.896Z,500.40
2023-02-22T02:16:32.223Z,379.93
2023-02-22T02:19:00.683Z,438.83
2023-02-22T02:21:56.147Z,357.53
2023-02-22T02:24:53.471Z,408.07
2023-02-22T02:27:23.433Z,459.83
2023-02-22T02:30:38.165Z,380.10
2023-02-22T02:33:13.842Z,398.73
2023-02-22T02:35:51.859Z,352.83
2023-02-22T02:38:31.404Z,314.60
2023-02-22T02:41:08.454Z,362.50
2023-02-22T02:43:44.166Z,306.40
2023-02-22T02:46:20.247Z,477.07
2023-02-22T02:48:56.905Z,436.23
2023-02-22T02:51:28.773Z,274.13
2023-02-22T02:53:58.481Z,310.43
2023-02-22T02:56:27.167Z,374.87
2023-02-22T02:58:56.230Z,239.77
2023-02-22T03:01:45.444Z,273.83
2023-02-22T03:04:37.461Z,267.93
2023-02-22T03:07:24.991Z,278.97
2023-02-22T03:10:04.036Z,293.20
2023-02-22T03:12:42.084Z,262.97
2023-02-22T03:15:21.971Z,249.23
2023-02-22T03:17:57.680Z,228.33
2023-02-22T03:20:32.669Z,206.23
2023-02-22T03:23:05.920Z,206.33
2023-02-22T03:25:39.670Z,195.07
2023-02-22T03:28:11.624Z,192.30
2023-02-22T03:30:44.213Z,191.03
2023-02-22T03:33:17.112Z,180.87
2023-02-22T03:35:50.868Z,175.93
2023-02-22T03:38:22.052Z,171.50
2023-02-22T03:40:54.505Z,167.57
2023-02-22T03:43:27.006Z,164.07
2023-02-22T03:45:56.180Z,173.47
2023-02-22T03:48:31.814Z,171.10
2023-02-22T03:51:04.496Z,175.97
2023-02-22T03:53:37.116Z,167.57
2023-02-22T03:56:08.656Z,166.63
2023-02-22T03:58:39.227Z,164.27
2023-02-22T04:01:07.800Z,164.37
2023-02-22T04:03:36.254Z,152.33
2023-02-22T04:06:06.223Z,158.40
2023-02-22T04:08:35.221Z,160.13
2023-02-22T04:11:03.666Z,151.37
2023-02-22T04:13:32.442Z,142.33
2023-02-22T04:16:01.095Z,148.27
2023-02-22T04:18:29.609Z,146.37
2023-02-22T04:20:58.061Z,146.20
2023-02-22T04:23:28.140Z,146.73
2023-02-22T04:25:56.652Z,143.70
2023-02-22T04:28:24.873Z,136.10
2023-02-22T04:30:53.277Z,145.13
2023-02-22T04:33:21.667Z,138.83
2023-02-22T04:35:51.699Z,139.43
2023-02-22T04:38:20.257Z,141.23
2023-02-22T04:40:50.228Z,135.00
2023-02-22T04:43:18.716Z,137.57
2023-02-22T04:45:47.167Z,138.07
2023-02-22T04:48:15.557Z,134.93
2023-02-22T04:50:44.050Z,129.27
2023-02-22T04:53:12.834Z,136.13
2023-02-22T04:55:41.307Z,132.67
2023-02-22T04:58:11.137Z,131.10
2023-02-22T05:00:39.655Z,136.13
2023-02-22T05:03:08.944Z,123.90
2023-02-22T05:05:37.403Z,131.23
2023-02-22T05:08:05.863Z,128.77
2023-02-22T05:10:34.296Z,124.13
2023-02-22T05:13:04.167Z,127.03
2023-02-22T05:15:33.933Z,126.27
2023-02-22T05:18:02.425Z,125.13
2023-02-22T05:20:31.978Z,131.10
2023-02-22T05:23:01.967Z,127.13
2023-02-22T05:25:30.657Z,118.23
2023-02-22T05:28:00.453Z,131.60
2023-02-22T05:30:31.204Z,112.77
2023-02-22T05:33:01.715Z,115.57
2023-02-22T05:35:30.859Z,115.70
2023-02-22T05:38:01.933Z,110.53
2023-02-22T05:40:30.947Z,123.00
2023-02-22T05:43:00.006Z,113.07
2023-02-22T05:45:29.661Z,110.57
2023-02-22T05:47:58.164Z,106.77
2023-02-22T05:50:28.024Z,105.67
2023-02-22T05:52:56.733Z,115.27
2023-02-22T05:55:25.772Z,101.80
2023-02-22T05:57:54.540Z,107.37
2023-02-22T06:00:25.618Z,102.77
2023-02-22T06:02:57.631Z,103.40
2023-02-22T06:05:27.637Z,110.47
2023-02-22T06:07:56.488Z,105.87
2023-02-22T06:10:24.979Z,108.90
2023-02-22T06:12:54.647Z,106.20
2023-02-22T06:15:24.576Z,101.87
2023-02-22T06:17:53.537Z,103.10
2023-02-22T06:20:25.010Z,103.37
2023-02-22T06:22:56.228Z,102.53
2023-02-22T06:25:26.455Z,95.63
2023-02-22T06:27:54.946Z,100.57
2023-02-22T06:30:25.131Z,93.87
2023-02-22T06:32:53.606Z,94.50
2023-02-22T06:35:22.848Z,86.70
2023-02-22T06:37:51.457Z,88.03
2023-02-22T06:40:21.351Z,91.70
2023-02-22T06:42:50.497Z,91.70
2023-02-22T06:45:19.481Z,88.93
2023-02-22T06:47:49.633Z,95.10
2023-02-22T06:50:23.553Z,85.70
2023-02-22T06:52:52.540Z,85.70
2023-02-22T06:55:24.762Z,88.40
2023-02-22T06:57:53.708Z,81.67
2023-02-22T07:00:24.820Z,89.30
2023-02-22T07:02:53.546Z,87.00
2023-02-22T07:05:23.180Z,83.83
2023-02-22T07:07:52.855Z,94.60
2023-02-22T07:10:25.761Z,89.53
2023-02-22T07:12:54.291Z,93.40
2023-02-22T07:15:23.836Z,85.70
2023-02-22T07:17:52.497Z,89.90
2023-02-22T07:20:22.046Z,95.90
2023-02-22T07:22:51.230Z,82.87
2023-02-22T07:25:19.952Z,79.67
2023-02-22T07:27:50.009Z,84.13
2023-02-22T07:30:20.292Z,92.63
2023-02-22T07:32:49.254Z,87.07
2023-02-22T07:35:18.854Z,88.50
2023-02-22T07:37:48.239Z,79.80
2023-02-22T07:40:18.129Z,84.67
2023-02-22T07:42:55.579Z,86.43
2023-02-22T07:45:25.024Z,82.80
2023-02-22T07:47:53.457Z,87.23
2023-02-22T07:50:23.681Z,88.57
2023-02-22T07:52:54.367Z,91.60
2023-02-22T07:55:24.511Z,88.43
2023-02-22T07:57:57.038Z,89.93
2023-02-22T08:00:27.564Z,88.83
2023-02-22T08:02:56.456Z,93.13
2023-02-22T08:05:27.068Z,89.43
2023-02-22T08:07:55.891Z,86.13
2023-02-22T08:10:26.434Z,82.30
2023-02-22T08:12:58.170Z,84.40
2023-02-22T08:15:29.466Z,86.83
2023-02-22T08:17:58.367Z,91.17
2023-02-22T08:20:27.113Z,81.60
2023-02-22T08:22:56.166Z,85.27
2023-02-22T08:25:27.280Z,87.83
2023-02-22T08:28:01.358Z,87.97
2023-02-22T08:30:31.269Z,86.77
2023-02-22T08:33:02.094Z,87.80
2023-02-22T08:35:31.757Z,88.90
2023-02-22T08:38:01.750Z,87.90
2023-02-22T08:40:31.932Z,89.20
2023-02-22T08:43:02.550Z,92.93
2023-02-22T08:45:31.595Z,93.67
2023-02-22T08:48:00.625Z,90.73
2023-02-22T08:50:30.454Z,93.47
2023-02-22T08:53:00.754Z,97.43
2023-02-22T08:55:32.313Z,100.77
2023-02-22T08:58:03.861Z,93.43
2023-02-22T09:00:34.087Z,87.20
2023-02-22T09:03:04.078Z,92.77
2023-02-22T09:05:33.060Z,95.10
2023-02-22T09:08:02.088Z,95.77
2023-02-22T09:10:32.517Z,89.83
2023-02-22T09:13:03.932Z,92.83
2023-02-22T09:15:35.912Z,94.33
2023-02-22T09:18:05.411Z,94.07
2023-02-22T09:20:35.940Z,99.63
2023-02-22T09:23:05.200Z,88.53
2023-02-22T09:25:34.706Z,91.70
2023-02-22T09:28:04.362Z,88.57
2023-02-22T09:30:34.802Z,88.57
2023-02-22T09:33:05.944Z,93.80
2023-02-22T09:35:36.245Z,90.40
2023-02-22T09:38:07.296Z,91.30
2023-02-22T09:40:45.055Z,92.00
2023-02-22T09:43:25.593Z,92.13
2023-02-22T09:46:05.243Z,90.23
2023-02-22T09:48:37.542Z,86.17
2023-02-22T09:51:19.534Z,88.27
2023-02-22T09:53:50.855Z,85.40
2023-02-22T09:56:21.115Z,95.03
2023-02-22T09:58:53.799Z,92.83
2023-02-22T10:01:29.004Z,95.97
2023-02-22T10:04:04.730Z,95.20
2023-02-22T10:06:34.967Z,94.63
2023-02-22T10:09:08.143Z,97.37
2023-02-22T10:11:53.733Z,90.23
2023-02-22T10:14:43.864Z,98.63
2023-02-22T10:17:19.010Z,104.67
2023-02-22T10:19:56.171Z,99.17
2023-02-22T10:22:40.388Z,102.27
2023-02-22T10:25:13.970Z,102.20
2023-02-22T10:27:45.916Z,106.60
2023-02-22T10:30:25.324Z,106.63
2023-02-22T10:32:59.862Z,106.37
2023-02-22T10:35:30.926Z,105.83
2023-02-22T10:38:05.364Z,104.87
2023-02-22T10:40:33.918Z,107.23
2023-02-22T10:43:06.790Z,109.13
2023-02-22T10:45:37.398Z,112.27
2023-02-22T10:48:11.634Z,107.70
2023-02-22T10:50:42.130Z,101.70
2023-02-22T10:53:11.929Z,96.93
2023-02-22T10:56:12.894Z,104.20
2023-02-22T10:58:47.544Z,100.20
2023-02-22T11:01:27.659Z,108.53
2023-02-22T11:04:01.429Z,103.13
2023-02-22T11:06:30.129Z,109.37
2023-02-22T11:09:13.888Z,95.33
2023-02-22T11:11:44.441Z,109.27
2023-02-22T11:14:14.208Z,123.47
2023-02-22T11:16:47.245Z,136.63
2023-02-22T11:19:23.218Z,148.93
2023-02-22T11:21:54.324Z,165.10
2023-02-22T11:24:30.311Z,171.30
2023-02-22T11:27:03.928Z,180.10
2023-02-22T11:29:33.852Z,181.80
2023-02-22T11:32:13.558Z,178.30
2023-02-22T11:34:43.986Z,176.83
2023-02-22T11:37:30.722Z,177.10
2023-02-22T11:40:17.833Z,165.07
2023-02-22T11:42:46.526Z,159.73
2023-02-22T11:45:17.253Z,154.17
2023-02-22T11:47:53.729Z,153.60
2023-02-22T11:50:32.928Z,169.30
2023-02-22T11:53:27.826Z,184.00
2023-02-22T11:56:10.825Z,208.63
2023-02-22T11:58:46.904Z,221.83
2023-02-22T12:01:24.468Z,221.53
2023-02-22T12:04:23.819Z,228.30
2023-02-22T12:07:02.494Z,232.97
2023-02-22T12:09:38.469Z,214.53
2023-02-22T12:12:18.519Z,196.77
2023-02-22T12:14:56.838Z,173.97
2023-02-22T12:17:43.613Z,178.67
2023-02-22T12:20:24.803Z,164.63
2023-02-22T12:23:06.581Z,173.53
2023-02-22T12:25:38.954Z,173.83
2023-02-22T12:28:24.673Z,181.27
2023-02-22T12:31:02.886Z,173.83
2023-02-22T12:33:39.376Z,166.03
2023-02-22T12:36:15.099Z,159.57
2023-02-22T12:38:48.078Z,173.23
2023-02-22T12:41:24.507Z,160.70
2023-02-22T12:43:56.910Z,184.93
2023-02-22T12:46:31.954Z,175.73
2023-02-22T12:49:08.624Z,181.83
2023-02-22T12:51:44.417Z,158.23
2023-02-22T12:54:19.919Z,148.87
2023-02-22T12:56:54.369Z,136.87
2023-02-22T12:59:30.550Z,125.53
2023-02-22T13:02:04.573Z,121.27
2023-02-22T13:04:34.790Z,122.07
2023-02-22T13:07:19.425Z,110.13
2023-02-22T13:10:04.048Z,108.10
2023-02-22T13:12:41.050Z,112.07
2023-02-22T13:15:19.803Z,95.83
2023-02-22T13:18:01.303Z,91.73
2023-02-22T13:20:35.553Z,85.37
2023-02-22T13:23:12.342Z,90.87
2023-02-22T13:25:45.374Z,88.77
2023-02-22T13:28:29.209Z,86.20
2023-02-22T13:31:18.305Z,91.17
2023-02-22T13:34:06.058Z,92.17
2023-02-22T13:37:06.862Z,96.07
2023-02-22T13:39:57.711Z,85.07
2023-02-22T13:42:55.613Z,82.37
2023-02-22T13:45:56.149Z,85.90
2023-02-22T13:48:51.345Z,83.47
2023-02-22T13:51:43.814Z,84.20
2023-02-22T13:54:20.950Z,74.23
2023-02-22T13:56:52.230Z,80.20
2023-02-22T13:59:27.885Z,77.43
2023-02-22T14:01:56.904Z,75.67
2023-02-22T14:04:46.323Z,72.33
2023-02-22T14:07:57.702Z,72.67
2023-02-22T14:10:48.517Z,76.20
2023-02-22T14:13:19.842Z,78.93
2023-02-22T14:16:20.223Z,86.03
2023-02-22T14:18:50.910Z,89.13
2023-02-22T14:21:21.636Z,91.80
2023-02-22T14:23:51.268Z,93.20
2023-02-22T14:26:25.853Z,89.73
2023-02-22T14:28:59.035Z,87.43
2023-02-22T14:31:36.461Z,91.50
2023-02-22T14:34:11.451Z,86.90
2023-02-22T14:37:01.018Z,84.27
2023-02-22T14:39:34.089Z,85.73
2023-02-22T14:42:07.571Z,83.30
2023-02-22T14:44:42.668Z,84.30
2023-02-22T14:47:18.252Z,85.37
2023-02-22T14:49:50.405Z,78.43
2023-02-22T14:52:24.169Z,76.43
2023-02-22T14:55:07.224Z,74.23
2023-02-22T14:57:44.825Z,62.20
2023-02-22T15:00:23.261Z,54.40
2023-02-22T15:02:57.289Z,43.60
2023-02-22T15:05:30.046Z,38.07
2023-02-22T15:08:00.188Z,46.43
2023-02-22T15:10:31.483Z,32.13
2023-02-22T15:13:11.033Z,29.33
2023-02-22T15:15:47.611Z,29.10
2023-02-22T15:18:24.096Z,36.50
2023-02-22T15:20:56.583Z,29.60
2023-02-22T15:23:33.265Z,32.97
2023-02-22T15:26:03.005Z,34.40
2023-02-22T15:28:32.280Z,34.97
2023-02-22T15:31:28.076Z,50.17
2023-02-22T15:33:56.994Z,40.73
2023-02-22T15:36:31.091Z,42.03
2023-02-22T15:38:59.647Z,40.90
2023-02-22T15:41:31.705Z,46.27
2023-02-22T15:44:07.892Z,42.97
2023-02-22T15:46:43.778Z,47.57
2023-02-22T15:49:24.573Z,50.00
2023-02-22T15:52:09.610Z,49.30
2023-02-22T15:54:44.277Z,48.83
2023-02-22T15:57:16.843Z,52.23
2023-02-22T15:59:50.006Z,50.17
2023-02-22T16:02:32.667Z,55.17
2023-02-22T16:05:05.125Z,49.63
2023-02-22T16:07:34.372Z,56.83
2023-02-22T16:10:09.139Z,50.83
2023-02-22T16:12:38.321Z,52.13
2023-02-22T16:15:17.279Z,48.27
2023-02-22T16:18:01.407Z,48.37
2023-02-22T16:20:35.400Z,50.80
2023-02-22T16:23:24.680Z,46.83
2023-02-22T16:26:21.127Z,44.80
2023-02-22T16:28:51.992Z,45.97
2023-02-22T16:31:25.369Z,45.60
2023-02-22T16:33:55.984Z,43.00
2023-02-22T16:36:37.654Z,47.07
2023-02-22T16:39:07.389Z,50.13
2023-02-22T16:41:35.909Z,54.00
2023-02-22T16:44:08.003Z,51.43
2023-02-22T16:46:37.962Z,56.03
2023-02-22T16:49:08.227Z,55.20
2023-02-22T16:51:42.803Z,54.73
2023-02-22T16:54:14.021Z,54.17
2023-02-22T16:56:42.614Z,56.37
2023-02-22T16:59:14.111Z,53.67
2023-02-22T17:01:43.326Z,59.23
2023-02-22T17:04:16.623Z,54.97
2023-02-22T17:06:45.302Z,61.33
2023-02-22T17:09:13.767Z,56.07
2023-02-22T17:11:42.793Z,57.10
2023-02-22T17:14:14.426Z,59.87
2023-02-22T17:16:42.944Z,56.57
2023-02-22T17:19:16.510Z,60.77
2023-02-22T17:21:44.929Z,58.47
2023-02-22T17:24:14.028Z,67.47
2023-02-22T17:26:42.502Z,56.07
2023-02-22T17:29:10.744Z,84.70
2023-02-22T17:31:39.302Z,61.33
2023-02-22T17:34:08.472Z,73.20
2023-02-22T17:36:38.286Z,60.23
2023-02-22T17:39:10.538Z,64.60
2023-02-22T17:41:40.709Z,55.30
2023-02-22T17:44:09.546Z,61.27
2023-02-22T17:46:40.731Z,61.90
2023-02-22T17:49:09.479Z,63.90
2023-02-22T17:51:41.071Z,63.93
2023-02-22T17:54:10.519Z,75.43
2023-02-22T17:56:38.905Z,71.00
2023-02-22T17:59:09.162Z,67.77
2023-02-22T18:01:37.882Z,62.10
2023-02-22T18:04:06.869Z,68.77
2023-02-22T18:06:35.307Z,64.67
2023-02-22T18:09:10.548Z,70.77
2023-02-22T18:11:40.197Z,73.00
2023-02-22T18:14:10.900Z,70.07
2023-02-22T18:16:40.600Z,75.20
2023-02-22T18:19:09.304Z,72.53
2023-02-22T18:21:38.686Z,78.67
2023-02-22T18:24:08.936Z,85.90
2023-02-22T18:26:39.115Z,87.67
2023-02-22T18:29:07.742Z,108.47
2023-02-22T18:31:36.267Z,73.73
2023-02-22T18:34:04.938Z,97.83
2023-02-22T18:36:33.513Z,84.13
2023-02-22T18:39:04.181Z,100.20
2023-02-22T18:41:33.836Z,108.77
2023-02-22T18:44:03.348Z,77.57
2023-02-22T18:46:31.792Z,175.17
2023-02-22T18:49:00.368Z,159.43
2023-02-22T18:51:29.557Z,94.37
2023-02-22T18:54:00.533Z,385.23
2023-02-22T18:56:30.942Z,507.47
2023-02-22T18:59:01.926Z,123.53
2023-02-22T19:01:31.193Z,113.43
2023-02-22T19:04:01.428Z,89.40
2023-02-22T19:06:29.922Z,97.27
2023-02-22T19:09:01.336Z,91.33
2023-02-22T19:11:29.927Z,107.03
2023-02-22T19:13:59.993Z,94.50
2023-02-22T19:16:28.545Z,91.50
2023-02-22T19:18:58.255Z,91.73
2023-02-22T19:21:27.991Z,97.87
2023-02-22T19:23:56.797Z,89.53
2023-02-22T19:26:26.351Z,92.30
2023-02-22T19:28:56.676Z,84.23
2023-02-22T19:31:31.136Z,87.57
2023-02-22T19:34:02.027Z,91.20
2023-02-22T19:36:30.545Z,89.23
2023-02-22T19:39:01.728Z,85.00
2023-02-22T19:41:30.894Z,86.70
2023-02-22T19:43:59.470Z,78.97
2023-02-22T19:46:29.352Z,85.13
2023-02-22T19:48:58.368Z,92.20
2023-02-22T19:51:29.042Z,86.43
2023-02-22T19:53:59.813Z,87.77
2023-02-22T19:56:28.585Z,86.90
2023-02-22T19:58:58.189Z,89.07
2023-02-22T20:01:32.985Z,93.53
2023-02-22T20:04:03.724Z,94.03
2023-02-22T20:06:35.155Z,99.20
2023-02-22T20:09:04.735Z,101.27
2023-02-22T20:11:33.326Z,91.87
2023-02-22T20:14:02.271Z,95.00
2023-02-22T20:16:32.130Z,102.33
2023-02-22T20:19:00.658Z,94.23
2023-02-22T20:21:31.883Z,109.10
2023-02-22T20:24:00.332Z,99.07
2023-02-22T20:26:30.649Z,101.33
2023-02-22T20:29:04.368Z,97.20
2023-02-22T20:31:34.697Z,94.63
2023-02-22T20:34:06.426Z,107.00
2023-02-22T20:36:36.213Z,108.10
2023-02-22T20:39:07.544Z,99.07
2023-02-22T20:41:37.412Z,99.80
2023-02-22T20:44:07.167Z,102.03
2023-02-22T20:46:37.242Z,97.20
2023-02-22T20:49:08.246Z,101.93
2023-02-22T20:51:37.080Z,106.13
2023-02-22T20:54:06.339Z,105.37
2023-02-22T20:56:34.844Z,108.27
2023-02-22T20:59:04.588Z,108.40
2023-02-22T21:01:33.534Z,102.70
2023-02-22T21:04:04.272Z,104.70
2023-02-22T21:06:35.369Z,96.97
2023-02-22T21:09:07.320Z,108.77
2023-02-22T21:11:36.262Z,96.20
2023-02-22T21:14:04.855Z,96.63
2023-02-22T21:16:35.592Z,98.53
2023-02-22T21:19:07.258Z,106.10
2023-02-22T21:21:36.886Z,97.40
2023-02-22T21:24:05.524Z,100.20
2023-02-22T21:26:35.589Z,96.47
2023-02-22T21:29:05.840Z,95.07
2023-02-22T21:31:34.900Z,104.03
2023-02-22T21:34:05.607Z,95.70
2023-02-22T21:36:34.224Z,97.10
2023-02-22T21:39:08.450Z,97.00
2023-02-22T21:41:39.175Z,100.73
2023-02-22T21:44:09.060Z,101.43
2023-02-22T21:46:37.631Z,106.60
2023-02-22T21:49:07.468Z,99.40
2023-02-22T21:51:37.782Z,106.23
2023-02-22T21:54:07.775Z,105.63
2023-02-22T21:56:38.154Z,94.20
2023-02-22T21:59:11.600Z,97.90
2023-02-22T22:01:46.792Z,97.43
2023-02-22T22:04:19.298Z,97.10
2023-02-22T22:06:48.814Z,95.27
2023-02-22T22:09:20.375Z,102.10
2023-02-22T22:11:49.859Z,97.57
2023-02-22T22:14:19.080Z,90.10
2023-02-22T22:16:48.267Z,91.70
2023-02-22T22:19:18.245Z,87.07
2023-02-22T22:21:48.878Z,86.97
2023-02-22T22:24:20.516Z,85.13
2023-02-22T22:26:51.179Z,88.13
2023-02-22T22:29:20.383Z,84.70
2023-02-22T22:31:48.840Z,87.67
2023-02-22T22:34:19.527Z,86.30
2023-02-22T22:36:48.011Z,92.43
2023-02-22T22:39:16.399Z,91.33
2023-02-22T22:41:45.446Z,90.43
2023-02-22T22:44:16.184Z,93.03
2023-02-22T22:46:49.144Z,96.90
2023-02-22T22:49:20.646Z,101.27
2023-02-22T22:51:49.131Z,94.27
2023-02-22T22:54:18.365Z,97.50
2023-02-22T22:56:46.942Z,94.67
2023-02-22T22:59:15.512Z,96.23
2023-02-22T23:01:45.588Z,99.40
2023-02-22T23:04:16.900Z,97.57
2023-02-22T23:06:49.887Z,99.37
2023-02-22T23:09:21.744Z,99.37
2023-02-22T23:11:53.429Z,102.93
2023-02-22T23:14:24.282Z,92.97
2023-02-22T23:16:53.850Z,101.13
2023-02-22T23:19:22.874Z,95.23
2023-02-22T23:21:53.035Z,92.43
2023-02-22T23:24:21.637Z,107.30
2023-02-22T23:26:50.345Z,106.33
2023-02-22T23:29:19.583Z,104.37
2023-02-22T23:31:49.006Z,103.70
2023-02-22T23:34:18.381Z,100.87
2023-02-22T23:36:47.711Z,99.80
2023-02-22T23:39:20.599Z,99.60
2023-02-22T23:41:51.606Z,102.03
2023-02-22T23:44:21.634Z,103.27
2023-02-22T23:46:55.280Z,102.20
2023-02-22T23:49:26.375Z,116.23
2023-02-22T23:51:54.976Z,106.97
2023-02-22T23:54:25.361Z,109.40
2023-02-22T23:56:57.291Z,105.77
2023-02-22T23:59:27.042Z,110.17
